Time;durP1;ratioP1;P1;durP2;ratioP2;P2;SDS_P1;SDS_P2;PMS_P1;PMS_P2;Temp;Humidity;BMP_temperature;BMP_pressure;BME280_temperature;BME280_humidity;BME280_pressure;Samples;Min_cycle;Max_cycle;Signal;HPM_P1;HPM_P2
2023/03/06 00:02:08;;;;;;;37.43;20.77;;;;;;;;;;5008866;28;20034;-71
2023/03/06 00:04:33;;;;;;;40.78;19.77;;;;;;;;;;5007763;28;20273;-70
2023/03/06 00:06:58;;;;;;;25.35;13.65;;;;;;;;;;5011744;28;20121;-71
2023/03/06 00:09:24;;;;;;;26.77;12.38;;;;;;;;;;5007852;28;20076;-71
2023/03/06 00:11:49;;;;;;;27.83;11.75;;;;;;;;;;5012171;28;20475;-70
2023/03/06 00:14:15;;;;;;;21.37;11.03;;;;;;;;;;5007688;28;20026;-71
2023/03/06 00:16:40;;;;;;;26.58;12.00;;;;;;;;;;5009871;28;20280;-71
2023/03/06 00:19:05;;;;;;;26.40;12.63;;;;;;;;;;5009209;28;20355;-71
2023/03/06 00:21:30;;;;;;;24.05;11.38;;;;;;;;;;5009956;28;20316;-71
2023/03/06 00:23:56;;;;;;;21.98;11.93;;;;;;;;;;5012236;28;20030;-70
2023/03/06 00:26:21;;;;;;;22.27;10.63;;;;;;;;;;5005068;28;20026;-71
2023/03/06 00:28:46;;;;;;;19.02;10.57;;;;;;;;;;5009779;28;20511;-71
2023/03/06 00:31:11;;;;;;;16.95;9.10;;;;;;;;;;5004946;28;20072;-71
2023/03/06 00:33:37;;;;;;;21.50;9.63;;;;;;;;;;4998885;28;20022;-71
2023/03/06 00:36:05;;;;;;;22.27;11.10;;;;;;;;;;5006015;28;20562;-70
2023/03/06 00:38:32;;;;;;;26.23;11.20;;;;;;;;;;5010663;28;20026;-71
2023/03/06 00:40:57;;;;;;;31.92;13.40;;;;;;;;;;5007652;28;20026;-70
2023/03/06 00:43:22;;;;;;;38.05;17.73;;;;;;;;;;5010733;28;20408;-71
2023/03/06 00:45:47;;;;;;;37.88;16.55;;;;;;;;;;5004811;28;20502;-71
2023/03/06 00:48:13;;;;;;;45.45;18.35;;;;;;;;;;5006238;28;20113;-71
2023/03/06 00:50:38;;;;;;;35.90;18.63;;;;;;;;;;5005769;28;20072;-71
2023/03/06 00:53:03;;;;;;;41.08;19.65;;;;;;;;;;5011629;28;20434;-71
2023/03/06 00:55:29;;;;;;;41.75;19.30;;;;;;;;;;5011331;28;20085;-71
2023/03/06 00:57:54;;;;;;;40.35;21.55;;;;;;;;;;5006930;28;20495;-71
2023/03/06 01:00:20;;;;;;;34.90;16.15;;;;;;;;;;5008128;28;20043;-71
2023/03/06 01:02:45;;;;;;;45.22;18.40;;;;;;;;;;5004143;28;20022;-71
2023/03/06 01:05:11;;;;;;;40.58;17.88;;;;;;;;;;5008070;28;20022;-71
2023/03/06 01:07:37;;;;;;;39.78;18.13;;;;;;;;;;5006911;28;20041;-71
2023/03/06 01:10:04;;;;;;;41.72;19.05;;;;;;;;;;5008067;28;20363;-71
2023/03/06 01:12:29;;;;;;;39.03;17.40;;;;;;;;;;5010305;28;20021;-71
2023/03/06 01:14:54;;;;;;;19.05;7.63;;;;;;;;;;5008577;28;20029;-72
2023/03/06 01:17:19;;;;;;;28.65;13.15;;;;;;;;;;5007990;28;20025;-71
2023/03/06 01:19:44;;;;;;;28.75;12.63;;;;;;;;;;5006829;28;20046;-72
2023/03/06 01:22:10;;;;;;;26.92;12.43;;;;;;;;;;5008233;28;20018;-71
2023/03/06 01:24:35;;;;;;;22.75;10.43;;;;;;;;;;5011107;28;20475;-72
2023/03/06 01:27:00;;;;;;;23.05;10.95;;;;;;;;;;5008341;28;20026;-71
2023/03/06 01:29:25;;;;;;;22.40;9.60;;;;;;;;;;5009012;28;20021;-72
2023/03/06 01:31:51;;;;;;;20.05;10.38;;;;;;;;;;5003343;28;20485;-71
2023/03/06 01:34:16;;;;;;;23.95;11.02;;;;;;;;;;5009324;28;20080;-71
2023/03/06 01:36:41;;;;;;;24.30;10.70;;;;;;;;;;5007599;28;20013;-71
2023/03/06 01:39:06;;;;;;;23.08;10.80;;;;;;;;;;5009379;28;20030;-71
2023/03/06 01:41:32;;;;;;;28.13;10.82;;;;;;;;;;5010727;28;20025;-70
2023/03/06 01:43:57;;;;;;;23.90;11.65;;;;;;;;;;5007094;28;20056;-71
2023/03/06 01:46:31;;;;;;;22.48;10.77;;;;;;;;;;5009962;28;20116;-71
2023/03/06 01:49:17;;;;;;;50.88;20.77;;;;;;;;;;5007531;28;20510;-71
2023/03/06 01:51:44;;;;;;;48.22;21.88;;;;;;;;;;5007092;28;20034;-71
2023/03/06 01:54:21;;;;;;;47.40;20.55;;;;;;;;;;5020872;28;20030;-71
2023/03/06 01:56:47;;;;;;;39.45;17.98;;;;;;;;;;5004722;28;20018;-70
2023/03/06 01:59:13;;;;;;;44.40;19.63;;;;;;;;;;5006387;28;20029;-71
2023/03/06 02:01:39;;;;;;;44.97;21.17;;;;;;;;;;5007572;28;20048;-71
2023/03/06 02:04:04;;;;;;;44.92;20.50;;;;;;;;;;5005329;28;20471;-70
2023/03/06 02:06:29;;;;;;;45.30;19.80;;;;;;;;;;5010472;28;20052;-71
2023/03/06 02:08:55;;;;;;;37.20;17.23;;;;;;;;;;5006967;28;20064;-70
2023/03/06 02:11:21;;;;;;;44.30;19.73;;;;;;;;;;5008925;28;20024;-70
2023/03/06 02:13:48;;;;;;;40.03;17.55;;;;;;;;;;5002430;28;20018;-70
2023/03/06 02:16:14;;;;;;;51.40;20.38;;;;;;;;;;5008409;28;20041;-70
2023/03/06 02:18:41;;;;;;;50.55;22.08;;;;;;;;;;5007239;28;20017;-70
2023/03/06 02:21:07;;;;;;;50.45;21.92;;;;;;;;;;5008674;28;20026;-70
2023/03/06 02:23:46;;;;;;;59.70;24.83;;;;;;;;;;5004779;28;20026;-70
2023/03/06 02:26:12;;;;;;;57.25;26.35;;;;;;;;;;5009012;28;20109;-70
2023/03/06 02:28:38;;;;;;;52.22;23.95;;;;;;;;;;5006570;28;20084;-70
2023/03/06 02:31:04;;;;;;;54.03;25.15;;;;;;;;;;5006930;28;20022;-70
2023/03/06 02:33:30;;;;;;;35.00;15.50;;;;;;;;;;5002895;28;20104;-70
2023/03/06 02:35:57;;;;;;;47.83;22.33;;;;;;;;;;5007746;28;20093;-70
2023/03/06 02:38:26;;;;;;;36.38;12.27;;;;;;;;;;5008411;28;20029;-70
2023/03/06 02:40:51;;;;;;;45.80;20.88;;;;;;;;;;5010234;28;20498;-70
2023/03/06 02:43:19;;;;;;;44.88;17.95;;;;;;;;;;5001036;28;20030;-70
2023/03/06 02:45:45;;;;;;;40.92;17.92;;;;;;;;;;5007367;28;20065;-70
2023/03/06 02:48:12;;;;;;;52.15;22.52;;;;;;;;;;5006510;28;20039;-70
2023/03/06 02:50:37;;;;;;;58.80;24.15;;;;;;;;;;5002777;28;20022;-70
2023/03/06 02:53:02;;;;;;;44.72;20.73;;;;;;;;;;4996187;28;20032;-70
2023/03/06 02:55:28;;;;;;;51.72;23.63;;;;;;;;;;5005436;28;20113;-70
2023/03/06 02:57:53;;;;;;;48.70;20.07;;;;;;;;;;5006986;28;20026;-71
2023/03/06 03:00:18;;;;;;;45.45;20.17;;;;;;;;;;4999207;28;20827;-71
2023/03/06 03:02:44;;;;;;;46.80;21.25;;;;;;;;;;4998136;28;20038;-70
2023/03/06 03:05:09;;;;;;;48.20;23.08;;;;;;;;;;5009742;28;20555;-70
2023/03/06 03:07:34;;;;;;;47.83;21.75;;;;;;;;;;5002983;28;20084;-69
2023/03/06 03:10:00;;;;;;;47.75;22.40;;;;;;;;;;4999845;28;20101;-70
2023/03/06 03:12:27;;;;;;;45.78;22.15;;;;;;;;;;4998582;28;20066;-70
2023/03/06 03:14:52;;;;;;;57.20;25.80;;;;;;;;;;5005147;28;20479;-70
2023/03/06 03:17:17;;;;;;;57.17;25.98;;;;;;;;;;5000226;28;20022;-70
2023/03/06 03:19:42;;;;;;;59.13;25.88;;;;;;;;;;4999107;28;20015;-70
2023/03/06 03:22:08;;;;;;;67.67;30.53;;;;;;;;;;4999687;28;20029;-69
2023/03/06 03:24:33;;;;;;;68.90;27.77;;;;;;;;;;5000366;28;20268;-70
2023/03/06 03:26:58;;;;;;;66.97;26.13;;;;;;;;;;5002860;28;20026;-70
2023/03/06 03:29:23;;;;;;;67.07;26.33;;;;;;;;;;5005428;28;20106;-70
2023/03/06 03:31:48;;;;;;;63.60;27.80;;;;;;;;;;5004697;28;20053;-70
2023/03/06 03:34:14;;;;;;;61.17;28.88;;;;;;;;;;5001281;28;20042;-71
2023/03/06 03:36:39;;;;;;;56.53;24.02;;;;;;;;;;5003495;28;20025;-71
2023/03/06 03:39:05;;;;;;;57.72;25.42;;;;;;;;;;5001052;28;20022;-70
2023/03/06 03:41:30;;;;;;;50.22;21.80;;;;;;;;;;5010062;28;20017;-70
2023/03/06 03:43:56;;;;;;;58.75;22.80;;;;;;;;;;5009658;28;20153;-71
2023/03/06 03:46:21;;;;;;;49.53;22.58;;;;;;;;;;4998231;28;20057;-70
2023/03/06 03:48:46;;;;;;;54.65;24.23;;;;;;;;;;5001817;28;20065;-71
2023/03/06 03:51:12;;;;;;;59.28;25.20;;;;;;;;;;5002796;28;20033;-70
2023/03/06 03:53:37;;;;;;;55.75;28.08;;;;;;;;;;5001962;28;20022;-70
2023/03/06 03:56:03;;;;;;;50.30;21.20;;;;;;;;;;5004344;28;20072;-71
2023/03/06 03:58:28;;;;;;;54.38;24.48;;;;;;;;;;5004446;28;20029;-70
2023/03/06 04:00:54;;;;;;;52.47;23.60;;;;;;;;;;5009505;28;20060;-70
2023/03/06 04:03:19;;;;;;;48.58;20.33;;;;;;;;;;5005324;28;20026;-70
2023/03/06 04:05:44;;;;;;;49.83;21.13;;;;;;;;;;5007948;28;20026;-70
2023/03/06 04:08:09;;;;;;;49.00;20.83;;;;;;;;;;5003320;28;20309;-70
2023/03/06 04:10:35;;;;;;;56.42;23.10;;;;;;;;;;5009048;28;20033;-70
2023/03/06 04:13:01;;;;;;;47.60;20.67;;;;;;;;;;5001903;28;20021;-71
2023/03/06 04:15:26;;;;;;;45.25;19.73;;;;;;;;;;5009519;28;20382;-70
2023/03/06 04:17:51;;;;;;;48.08;19.98;;;;;;;;;;5008063;28;20112;-70
2023/03/06 04:20:17;;;;;;;49.75;21.02;;;;;;;;;;5012660;28;20022;-71
2023/03/06 04:22:42;;;;;;;48.25;21.98;;;;;;;;;;5002803;28;20026;-70
2023/03/06 04:25:07;;;;;;;51.97;21.65;;;;;;;;;;5010838;28;20017;-70
2023/03/06 04:27:32;;;;;;;54.20;21.65;;;;;;;;;;5006720;28;20699;-70
2023/03/06 04:29:58;;;;;;;50.17;22.38;;;;;;;;;;5007183;28;20028;-70
2023/03/06 04:32:23;;;;;;;55.92;21.40;;;;;;;;;;4994847;28;20593;-70
2023/03/06 04:34:48;;;;;;;53.67;22.50;;;;;;;;;;5005024;28;20034;-70
2023/03/06 04:37:20;;;;;;;56.03;23.10;;;;;;;;;;5001903;28;20026;-70
2023/03/06 04:39:46;;;;;;;54.38;22.98;;;;;;;;;;4997199;28;20015;-70
2023/03/06 04:42:11;;;;;;;47.22;21.38;;;;;;;;;;5002916;28;20597;-70
2023/03/06 04:44:36;;;;;;;54.92;21.95;;;;;;;;;;5007600;28;20467;-70
2023/03/06 04:47:01;;;;;;;50.57;21.20;;;;;;;;;;5005942;28;20434;-70
2023/03/06 04:49:26;;;;;;;54.70;21.83;;;;;;;;;;5004219;28;20373;-70
2023/03/06 04:51:52;;;;;;;56.78;22.55;;;;;;;;;;4999464;28;20041;-70
2023/03/06 04:54:17;;;;;;;53.35;24.02;;;;;;;;;;5008537;28;20064;-70
2023/03/06 04:56:42;;;;;;;57.53;26.90;;;;;;;;;;5004571;28;20460;-70
2023/03/06 04:59:07;;;;;;;58.08;24.63;;;;;;;;;;5000032;28;20025;-70
2023/03/06 05:01:32;;;;;;;59.10;25.30;;;;;;;;;;5005378;28;20092;-70
2023/03/06 05:03:57;;;;;;;57.63;23.75;;;;;;;;;;5004345;28;20281;-70
2023/03/06 05:06:23;;;;;;;67.93;31.77;;;;;;;;;;5002729;28;20654;-70
2023/03/06 05:08:48;;;;;;;61.47;24.90;;;;;;;;;;4999359;28;20273;-70
2023/03/06 05:11:13;;;;;;;68.70;26.85;;;;;;;;;;5002510;28;20486;-70
2023/03/06 05:13:38;;;;;;;65.90;26.00;;;;;;;;;;5001116;28;20092;-70
2023/03/06 05:16:04;;;;;;;68.83;28.83;;;;;;;;;;4994819;28;20022;-71
2023/03/06 05:18:29;;;;;;;66.00;26.85;;;;;;;;;;5005434;28;21121;-70
2023/03/06 05:20:58;;;;;;;66.50;25.83;;;;;;;;;;4999243;28;20083;-70
2023/03/06 05:23:23;;;;;;;61.83;25.40;;;;;;;;;;5001097;28;20051;-70
2023/03/06 05:25:48;;;;;;;68.35;30.70;;;;;;;;;;5002132;28;20037;-70
2023/03/06 05:28:13;;;;;;;72.70;29.70;;;;;;;;;;4997821;28;20021;-70
2023/03/06 05:30:39;;;;;;;70.00;27.13;;;;;;;;;;5000339;28;20023;-71
2023/03/06 05:33:04;;;;;;;66.83;27.57;;;;;;;;;;4997225;28;20093;-70
2023/03/06 05:35:29;;;;;;;68.63;35.67;;;;;;;;;;5009005;28;20367;-70
2023/03/06 05:37:54;;;;;;;69.10;32.28;;;;;;;;;;5000942;28;20268;-70
2023/03/06 05:40:20;;;;;;;70.32;28.83;;;;;;;;;;4997889;28;20064;-70
2023/03/06 05:42:45;;;;;;;64.10;26.92;;;;;;;;;;5000735;28;20111;-70
2023/03/06 05:45:10;;;;;;;59.70;26.07;;;;;;;;;;5002947;28;20025;-70
2023/03/06 05:47:35;;;;;;;69.28;28.10;;;;;;;;;;5005984;28;20615;-70
2023/03/06 05:50:01;;;;;;;66.78;29.25;;;;;;;;;;5006200;28;20014;-70
2023/03/06 05:52:26;;;;;;;66.43;25.35;;;;;;;;;;5002598;28;20026;-70
2023/03/06 05:54:52;;;;;;;66.63;25.90;;;;;;;;;;5007184;28;20036;-70
2023/03/06 05:57:18;;;;;;;74.38;34.08;;;;;;;;;;5004218;28;20260;-70
2023/03/06 05:59:43;;;;;;;62.92;25.25;;;;;;;;;;4993624;28;20022;-70
2023/03/06 06:02:08;;;;;;;61.67;26.80;;;;;;;;;;5004633;28;20054;-70
2023/03/06 06:04:33;;;;;;;59.22;26.63;;;;;;;;;;5009871;28;20382;-70
2023/03/06 06:06:59;;;;;;;66.35;27.80;;;;;;;;;;5005604;28;20034;-70
2023/03/06 06:09:24;;;;;;;68.97;29.77;;;;;;;;;;5010356;28;20132;-70
2023/03/06 06:11:51;;;;;;;62.25;26.95;;;;;;;;;;5004620;28;20021;-70
2023/03/06 06:14:16;;;;;;;70.65;27.83;;;;;;;;;;5005061;28;20030;-70
2023/03/06 06:16:41;;;;;;;69.30;29.48;;;;;;;;;;5001769;28;20371;-71
2023/03/06 06:19:06;;;;;;;69.03;26.70;;;;;;;;;;5002871;28;20454;-70
2023/03/06 06:21:31;;;;;;;73.72;28.15;;;;;;;;;;4999562;28;20053;-70
2023/03/06 06:23:57;;;;;;;67.27;27.63;;;;;;;;;;5006369;28;20036;-70
2023/03/06 06:26:22;;;;;;;72.05;33.22;;;;;;;;;;5000659;28;20764;-70
2023/03/06 06:28:47;;;;;;;70.30;28.77;;;;;;;;;;4998057;28;20030;-71
2023/03/06 06:31:12;;;;;;;65.15;26.27;;;;;;;;;;5003868;28;20034;-70
2023/03/06 06:33:38;;;;;;;61.35;28.45;;;;;;;;;;5006161;28;20018;-70
2023/03/06 06:36:03;;;;;;;65.10;29.15;;;;;;;;;;5001691;28;20105;-70
2023/03/06 06:38:29;;;;;;;62.28;28.40;;;;;;;;;;4993484;28;20129;-70
2023/03/06 06:40:54;;;;;;;62.00;24.95;;;;;;;;;;4998516;28;20030;-70
2023/03/06 06:43:19;;;;;;;59.78;24.63;;;;;;;;;;4999933;28;20033;-71
2023/03/06 06:45:44;;;;;;;54.40;23.30;;;;;;;;;;5004079;28;20034;-71
2023/03/06 06:48:10;;;;;;;67.60;26.92;;;;;;;;;;5000530;28;20376;-71
2023/03/06 06:50:35;;;;;;;58.30;24.33;;;;;;;;;;5005574;28;20029;-71
2023/03/06 06:53:00;;;;;;;54.92;23.25;;;;;;;;;;5006161;28;20010;-71
2023/03/06 06:55:25;;;;;;;58.50;22.48;;;;;;;;;;4998870;28;20029;-71
2023/03/06 06:57:51;;;;;;;56.65;23.13;;;;;;;;;;4997278;28;20023;-71
2023/03/06 07:00:16;;;;;;;56.03;25.98;;;;;;;;;;4997587;28;20018;-71
2023/03/06 07:02:42;;;;;;;53.08;21.90;;;;;;;;;;4996513;28;20125;-68
2023/03/06 07:05:07;;;;;;;52.78;23.77;;;;;;;;;;4999222;28;20026;-71
2023/03/06 07:07:33;;;;;;;55.33;22.30;;;;;;;;;;4999255;28;20025;-71
2023/03/06 07:09:59;;;;;;;55.63;19.27;;;;;;;;;;4999207;28;20058;-71
2023/03/06 07:12:24;;;;;;;43.58;19.40;;;;;;;;;;5001583;28;20061;-71
2023/03/06 07:14:49;;;;;;;46.28;19.98;;;;;;;;;;5003459;28;20014;-71
2023/03/06 07:17:14;;;;;;;53.38;23.77;;;;;;;;;;5004062;28;20026;-71
2023/03/06 07:19:39;;;;;;;51.13;19.65;;;;;;;;;;5003770;28;20023;-71
2023/03/06 07:22:06;;;;;;;51.87;19.07;;;;;;;;;;5001156;28;20081;-71
2023/03/06 07:24:31;;;;;;;46.63;20.08;;;;;;;;;;5002150;28;20275;-71
2023/03/06 07:26:56;;;;;;;48.58;19.92;;;;;;;;;;5001929;28;20022;-70
2023/03/06 07:29:21;;;;;;;58.67;23.67;;;;;;;;;;4999980;28;20033;-71
2023/03/06 07:31:47;;;;;;;45.67;20.13;;;;;;;;;;5006461;28;20029;-71
2023/03/06 07:34:13;;;;;;;50.77;20.90;;;;;;;;;;5001981;28;20740;-70
2023/03/06 07:36:39;;;;;;;46.97;19.50;;;;;;;;;;5003352;28;20344;-71
2023/03/06 07:39:04;;;;;;;46.75;19.75;;;;;;;;;;5005710;28;20105;-70
2023/03/06 07:41:29;;;;;;;50.20;20.45;;;;;;;;;;4998927;28;20109;-71
2023/03/06 07:43:55;;;;;;;56.50;23.20;;;;;;;;;;5009873;28;20080;-71
2023/03/06 07:46:20;;;;;;;57.65;22.65;;;;;;;;;;5009416;28;20494;-71
2023/03/06 07:48:45;;;;;;;47.00;20.77;;;;;;;;;;5006129;28;20442;-70
2023/03/06 07:51:15;;;;;;;47.80;18.90;;;;;;;;;;5001973;28;20364;-71
2023/03/06 07:53:40;;;;;;;49.38;23.10;;;;;;;;;;5010059;28;20010;-70
2023/03/06 07:56:09;;;;;;;54.95;21.80;;;;;;;;;;5001207;28;20097;-71
2023/03/06 07:58:35;;;;;;;47.63;20.00;;;;;;;;;;5009098;28;20060;-71
2023/03/06 08:01:04;;;;;;;54.38;21.10;;;;;;;;;;5006229;28;20338;-71
2023/03/06 08:03:30;;;;;;;52.63;21.70;;;;;;;;;;5007468;28;20109;-71
2023/03/06 08:06:03;;;;;;;54.85;22.83;;;;;;;;;;5005436;28;20117;-71
2023/03/06 08:08:28;;;;;;;50.55;19.00;;;;;;;;;;5004811;28;20345;-71
2023/03/06 08:10:53;;;;;;;52.13;23.75;;;;;;;;;;5001409;28;20085;-71
2023/03/06 08:13:19;;;;;;;57.80;27.95;;;;;;;;;;5008899;28;20232;-71
2023/03/06 08:15:46;;;;;;;54.15;23.67;;;;;;;;;;5004646;28;20502;-71
2023/03/06 08:18:11;;;;;;;58.63;22.25;;;;;;;;;;5002720;28;20507;-70
2023/03/06 08:20:36;;;;;;;60.40;22.85;;;;;;;;;;5005128;28;20049;-71
2023/03/06 08:23:02;;;;;;;53.67;24.33;;;;;;;;;;5000662;28;20047;-70
2023/03/06 08:25:28;;;;;;;48.78;22.05;;;;;;;;;;5006307;28;20109;-71
2023/03/06 08:27:53;;;;;;;54.45;23.80;;;;;;;;;;5006052;28;20017;-70
2023/03/06 08:30:20;;;;;;;64.93;24.13;;;;;;;;;;5000169;28;20022;-70
2023/03/06 08:32:45;;;;;;;55.13;25.67;;;;;;;;;;5005636;28;20634;-71
2023/03/06 08:35:10;;;;;;;48.72;21.52;;;;;;;;;;5008729;28;20018;-71
2023/03/06 08:37:36;;;;;;;64.10;24.30;;;;;;;;;;5002990;28;20547;-71
2023/03/06 08:40:03;;;;;;;66.03;27.58;;;;;;;;;;5004543;28;20029;-71
2023/03/06 08:42:28;;;;;;;52.45;23.92;;;;;;;;;;5001003;28;20422;-71
2023/03/06 08:44:53;;;;;;;59.40;26.20;;;;;;;;;;5005761;28;20029;-71
2023/03/06 08:47:20;;;;;;;58.15;23.25;;;;;;;;;;5008976;28;20026;-71
2023/03/06 08:49:45;;;;;;;59.17;23.42;;;;;;;;;;5006827;28;20029;-71
2023/03/06 08:52:10;;;;;;;66.82;26.70;;;;;;;;;;5004455;28;20030;-71
2023/03/06 08:54:36;;;;;;;64.60;26.15;;;;;;;;;;5002061;28;20108;-71
2023/03/06 08:57:01;;;;;;;66.32;26.98;;;;;;;;;;5004767;28;20034;-71
2023/03/06 08:59:26;;;;;;;62.33;32.38;;;;;;;;;;5004962;28;20053;-71
2023/03/06 09:01:51;;;;;;;71.32;33.15;;;;;;;;;;5004042;28;20109;-71
2023/03/06 09:04:16;;;;;;;70.35;29.55;;;;;;;;;;5006417;28;20134;-71
2023/03/06 09:06:42;;;;;;;75.70;30.92;;;;;;;;;;5000877;28;20037;-71
2023/03/06 09:09:08;;;;;;;75.22;31.27;;;;;;;;;;5004118;28;20034;-71
2023/03/06 09:11:33;;;;;;;73.18;30.13;;;;;;;;;;5005788;28;20028;-71
2023/03/06 09:13:58;;;;;;;74.13;29.17;;;;;;;;;;5001544;28;20026;-71
2023/03/06 09:16:24;;;;;;;71.45;28.70;;;;;;;;;;5000291;28;20353;-70
2023/03/06 09:18:51;;;;;;;68.35;30.15;;;;;;;;;;5002440;28;20018;-70
2023/03/06 09:21:17;;;;;;;68.50;28.05;;;;;;;;;;5008356;28;20083;-70
2023/03/06 09:23:42;;;;;;;67.90;27.92;;;;;;;;;;5003777;28;20057;-70
2023/03/06 09:26:07;;;;;;;62.07;25.43;;;;;;;;;;4997219;28;20048;-70
2023/03/06 09:28:37;;;;;;;67.07;28.75;;;;;;;;;;5002023;28;20269;-70
2023/03/06 09:31:06;;;;;;;70.85;29.48;;;;;;;;;;5001236;28;20022;-70
2023/03/06 09:33:32;;;;;;;72.85;29.80;;;;;;;;;;5006279;28;20037;-70
2023/03/06 09:35:57;;;;;;;65.85;36.63;;;;;;;;;;5003692;28;20015;-70
2023/03/06 09:38:24;;;;;;;63.13;27.83;;;;;;;;;;5008841;28;20028;-70
2023/03/06 09:41:01;;;;;;;68.63;29.40;;;;;;;;;;5001550;28;20033;-69
2023/03/06 09:43:29;;;;;;;65.05;33.35;;;;;;;;;;5004486;28;20030;-70
2023/03/06 09:45:55;;;;;;;74.88;28.95;;;;;;;;;;5001699;28;20260;-70
2023/03/06 09:48:25;;;;;;;68.95;28.88;;;;;;;;;;4998784;28;20030;-70
2023/03/06 09:50:55;;;;;;;60.35;25.60;;;;;;;;;;4999547;28;20037;-70
2023/03/06 09:53:30;;;;;;;63.25;25.50;;;;;;;;;;5001845;28;20033;-69
2023/03/06 09:55:59;;;;;;;75.97;34.75;;;;;;;;;;5003653;28;20490;-69
2023/03/06 09:58:27;;;;;;;73.10;32.08;;;;;;;;;;5004732;28;20044;-69
2023/03/06 10:01:13;;;;;;;52.63;23.23;;;;;;;;;;5002211;28;20044;-69
2023/03/06 10:03:57;;;;;;;50.42;20.33;;;;;;;;;;5000471;28;20030;-70
2023/03/06 10:06:26;;;;;;;73.22;28.13;;;;;;;;;;4999068;28;20021;-69
2023/03/06 10:09:04;;;;;;;60.00;25.70;;;;;;;;;;5001736;28;20026;-69
2023/03/06 10:11:29;;;;;;;31.95;12.27;;;;;;;;;;4999154;28;20022;-69
2023/03/06 10:14:10;;;;;;;68.82;26.45;;;;;;;;;;5001372;28;20193;-69
2023/03/06 10:16:35;;;;;;;41.00;19.25;;;;;;;;;;5000649;28;20266;-69
2023/03/06 10:19:02;;;;;;;57.00;24.35;;;;;;;;;;5001868;28;20464;-68
2023/03/06 10:21:33;;;;;;;64.47;29.30;;;;;;;;;;4991502;28;20032;-69
2023/03/06 10:23:58;;;;;;;50.30;19.88;;;;;;;;;;5002489;28;20083;-69
2023/03/06 10:26:25;;;;;;;43.45;19.50;;;;;;;;;;4998139;28;20038;-69
2023/03/06 10:28:54;;;;;;;56.92;21.80;;;;;;;;;;5000193;28;20280;-69
2023/03/06 10:31:22;;;;;;;58.75;28.95;;;;;;;;;;5002116;28;20091;-69
2023/03/06 10:33:52;;;;;;;59.80;26.08;;;;;;;;;;5000928;28;20383;-69
2023/03/06 10:36:19;;;;;;;52.90;24.23;;;;;;;;;;5001849;28;20033;-69
2023/03/06 10:38:47;;;;;;;57.42;25.33;;;;;;;;;;5001674;28;20022;-69
2023/03/06 10:41:12;;;;;;;62.35;25.08;;;;;;;;;;5006220;28;20025;-69
2023/03/06 10:43:39;;;;;;;59.85;26.92;;;;;;;;;;5001776;28;20026;-69
2023/03/06 10:46:05;;;;;;;54.75;24.45;;;;;;;;;;5004331;28;20276;-69
2023/03/06 10:48:37;;;;;;;52.13;27.15;;;;;;;;;;5005572;28;20021;-69
2023/03/06 10:51:16;;;;;;;52.20;21.13;;;;;;;;;;5007086;28;20537;-69
2023/03/06 10:54:00;;;;;;;57.05;24.48;;;;;;;;;;4998234;28;20030;-69
2023/03/06 10:56:28;;;;;;;57.03;25.52;;;;;;;;;;5007585;28;20062;-70
2023/03/06 10:59:11;;;;;;;51.67;23.27;;;;;;;;;;5006008;28;20387;-70
2023/03/06 11:01:37;;;;;;;55.08;24.40;;;;;;;;;;5001014;28;20032;-68
2023/03/06 11:04:14;;;;;;;64.32;24.13;;;;;;;;;;5000987;28;20116;-67
2023/03/06 11:06:39;;;;;;;49.65;20.38;;;;;;;;;;5003282;28;20029;-73
2023/03/06 11:09:21;;;;;;;46.15;20.15;;;;;;;;;;5000860;28;20036;-68
2023/03/06 11:11:47;;;;;;;53.67;22.80;;;;;;;;;;5000328;28;20419;-68
2023/03/06 11:14:14;;;;;;;48.85;25.05;;;;;;;;;;5001999;28;20030;-71
2023/03/06 11:16:39;;;;;;;50.55;26.00;;;;;;;;;;4982996;28;21324;-67
2023/03/06 11:19:16;;;;;;;51.85;21.65;;;;;;;;;;4985936;28;20080;-69
2023/03/06 11:21:41;;;;;;;49.17;21.98;;;;;;;;;;4987342;28;20025;-71
2023/03/06 11:24:16;;;;;;;55.22;22.80;;;;;;;;;;4983206;28;20026;-68
2023/03/06 11:26:50;;;;;;;53.28;21.45;;;;;;;;;;4988047;28;20068;-69
2023/03/06 11:29:34;;;;;;;52.25;23.50;;;;;;;;;;5002110;28;20502;-68
2023/03/06 11:32:13;;;;;;;50.55;20.38;;;;;;;;;;5005514;28;20109;-69
2023/03/06 11:34:57;;;;;;;49.72;21.38;;;;;;;;;;5004329;28;20126;-70
2023/03/06 11:37:31;;;;;;;46.75;25.33;;;;;;;;;;5005902;28;20030;-68
2023/03/06 11:39:59;;;;;;;52.05;19.92;;;;;;;;;;5006969;28;20014;-68
2023/03/06 11:42:30;;;;;;;47.38;19.20;;;;;;;;;;4996990;28;20025;-68
2023/03/06 11:45:14;;;;;;;50.10;19.92;;;;;;;;;;5005096;28;20025;-67
2023/03/06 11:47:48;;;;;;;55.70;21.85;;;;;;;;;;5002247;28;20077;-67
2023/03/06 11:50:49;;;;;;;55.03;22.58;;;;;;;;;;5002382;28;20030;-67
2023/03/06 11:53:18;;;;;;;46.47;22.52;;;;;;;;;;4965301;28;20030;-67
2023/03/06 11:55:53;;;;;;;47.87;18.43;;;;;;;;;;4990832;28;20058;-67
2023/03/06 11:58:37;;;;;;;47.97;20.88;;;;;;;;;;5002799;28;20022;-67
2023/03/06 12:01:16;;;;;;;44.22;20.08;;;;;;;;;;5005165;28;20014;-67
2023/03/06 12:03:51;;;;;;;49.25;21.58;;;;;;;;;;5008158;28;20089;-67
2023/03/06 12:06:26;;;;;;;55.25;20.63;;;;;;;;;;5003247;28;20022;-67
2023/03/06 12:08:54;;;;;;;51.78;24.25;;;;;;;;;;5005113;28;20045;-67
2023/03/06 12:11:22;;;;;;;50.78;21.38;;;;;;;;;;5004152;28;20022;-67
2023/03/06 12:13:50;;;;;;;43.60;21.17;;;;;;;;;;5008977;28;20044;-67
2023/03/06 12:16:33;;;;;;;47.25;22.08;;;;;;;;;;5008665;28;20022;-67
2023/03/06 12:19:20;;;;;;;46.92;21.70;;;;;;;;;;5004892;28;20090;-67
2023/03/06 12:21:46;;;;;;;43.08;19.88;;;;;;;;;;5003984;28;20041;-67
2023/03/06 12:24:17;;;;;;;50.47;19.92;;;;;;;;;;5009474;28;20010;-67
2023/03/06 12:26:42;;;;;;;45.65;21.77;;;;;;;;;;5003667;28;20021;-68
2023/03/06 12:29:23;;;;;;;47.40;18.90;;;;;;;;;;5005971;28;20023;-69
2023/03/06 12:32:07;;;;;;;40.38;17.20;;;;;;;;;;5001461;28;20370;-68
2023/03/06 12:34:41;;;;;;;43.00;18.63;;;;;;;;;;5002796;28;20068;-67
2023/03/06 12:37:10;;;;;;;38.67;17.20;;;;;;;;;;5003623;28;20030;-68
2023/03/06 12:39:44;;;;;;;41.63;17.10;;;;;;;;;;5005042;28;20022;-67
2023/03/06 12:42:22;;;;;;;42.60;20.75;;;;;;;;;;5008118;28;20018;-68
2023/03/06 12:45:12;;;;;;;42.08;17.60;;;;;;;;;;5004265;28;20033;-67
2023/03/06 12:47:46;;;;;;;40.58;19.42;;;;;;;;;;5007639;28;20022;-67
2023/03/06 12:50:16;;;;;;;44.85;22.75;;;;;;;;;;5005513;28;20026;-67
2023/03/06 12:52:42;;;;;;;49.63;19.33;;;;;;;;;;5003162;28;20042;-68
2023/03/06 12:55:12;;;;;;;41.55;20.30;;;;;;;;;;5006647;28;20021;-68
2023/03/06 12:57:38;;;;;;;47.85;18.50;;;;;;;;;;5009689;28;20391;-68
2023/03/06 13:00:03;;;;;;;40.28;18.10;;;;;;;;;;5006421;28;20035;-67
2023/03/06 13:02:40;;;;;;;41.33;17.33;;;;;;;;;;5002659;28;20058;-68
2023/03/06 13:05:24;;;;;;;43.03;19.17;;;;;;;;;;5005080;28;20018;-69
2023/03/06 13:07:56;;;;;;;36.20;15.90;;;;;;;;;;5007043;28;20641;-68
2023/03/06 13:10:25;;;;;;;37.13;16.58;;;;;;;;;;5001795;28;20037;-71
2023/03/06 13:12:56;;;;;;;34.47;14.90;;;;;;;;;;5009494;28;20038;-68
2023/03/06 13:15:27;;;;;;;55.35;17.00;;;;;;;;;;5004996;28;20113;-68
2023/03/06 13:17:52;;;;;;;36.88;17.95;;;;;;;;;;5011381;28;20257;-68
2023/03/06 13:20:31;;;;;;;43.87;18.10;;;;;;;;;;5006238;28;20051;-68
2023/03/06 13:22:57;;;;;;;33.25;15.45;;;;;;;;;;5003103;28;20260;-68
2023/03/06 13:25:22;;;;;;;39.45;18.45;;;;;;;;;;5005438;28;20026;-68
2023/03/06 13:27:53;;;;;;;43.38;18.73;;;;;;;;;;5007099;28;20085;-68
2023/03/06 13:30:33;;;;;;;46.33;18.17;;;;;;;;;;4999615;28;20104;-69
2023/03/06 13:32:59;;;;;;;40.30;18.55;;;;;;;;;;5009033;28;20053;-69
2023/03/06 13:35:34;;;;;;;43.63;20.48;;;;;;;;;;5005364;28;20030;-68
2023/03/06 13:38:00;;;;;;;47.35;20.23;;;;;;;;;;5008142;28;20026;-69
2023/03/06 13:40:34;;;;;;;41.10;17.67;;;;;;;;;;5004733;28;20125;-68
2023/03/06 13:43:03;;;;;;;40.50;16.27;;;;;;;;;;5009120;28;20025;-69
2023/03/06 13:45:43;;;;;;;41.55;18.23;;;;;;;;;;5001895;28;20529;-68
2023/03/06 13:48:27;;;;;;;38.53;16.77;;;;;;;;;;5006355;28;20094;-68
2023/03/06 13:50:54;;;;;;;45.00;19.15;;;;;;;;;;5004205;28;20029;-69
2023/03/06 13:53:19;;;;;;;44.35;18.70;;;;;;;;;;5007821;28;20021;-67
2023/03/06 13:55:56;;;;;;;29.67;13.10;;;;;;;;;;5002938;28;20741;-69
2023/03/06 13:58:36;;;;;;;42.42;18.13;;;;;;;;;;5006341;28;20264;-69
2023/03/06 14:01:01;;;;;;;47.00;18.05;;;;;;;;;;5002895;28;20018;-77
2023/03/06 14:03:43;;;;;;;48.73;20.90;;;;;;;;;;4999154;28;20489;-69
2023/03/06 14:06:27;;;;;;;54.08;20.55;;;;;;;;;;5005739;28;20277;-69
2023/03/06 14:08:52;;;;;;;46.10;18.70;;;;;;;;;;5004959;28;20054;-74
2023/03/06 14:11:19;;;;;;;48.53;21.05;;;;;;;;;;5004433;28;20085;-74
2023/03/06 14:13:49;;;;;;;44.42;15.80;;;;;;;;;;5001045;28;20021;-75
2023/03/06 14:16:20;;;;;;;50.97;24.50;;;;;;;;;;5008421;28;20022;-73
2023/03/06 14:18:48;;;;;;;55.47;22.80;;;;;;;;;;5002130;28;20033;-73
2023/03/06 14:21:20;;;;;;;49.70;20.27;;;;;;;;;;5004263;28;20061;-74